AAL2520 EGLL-KMIA
Flight info
| Callsign | AAL2520 |
|---|---|
| Flight time | N/A |
| Altitude | 34000 |
| Route | CPT DCT DIDZA L9 OKSAW DCT BIBPE DCT BUCGO DCT FELCA DCT OFSOX DCT BANBA DCT ADARA/M084F340 DCT 5130N02000W 5030N03000W 4930N04000W 4830N05000W DCT MUSAK N278C GAYBL/M083F360 DCT 41N065W DCT DRYED M201 VIRST Y494 WHOOS/N0481F360 Y494 WEAKK Y493 BAHAA AR15 HIBAC TARPN3 |
| Aircraft | B77W/H-SDE1E2E3FGHIJ2J3J4J5M1RWXY/LB1D1 |
Departure
| Time | N/A |
|---|---|
| Airport | London Heathrow Airport (EGLL) |
Arrival
| Time | 2026-04-30 14:44 |
|---|---|
| Airport | Miami International Airport (KMIA) |
| Time | Latitude | Longitude | Altitude | Speed | Heading |
|---|---|---|---|---|---|
| 2026-04-30 12:57 | 35.13773 | -72.36338 | 35867 ft | 411 kts | 244° |
| 2026-04-30 12:57 | 35.10737 | -72.42264 | 35856 ft | 412 kts | 244° |
| 2026-04-30 12:58 | 35.07692 | -72.48194 | 35859 ft | 413 kts | 244° |
| 2026-04-30 12:58 | 35.04609 | -72.54113 | 35863 ft | 415 kts | 242° |
| 2026-04-30 12:59 | 35.01031 | -72.59643 | 35860 ft | 419 kts | 237° |
| 2026-04-30 12:59 | 34.97338 | -72.65136 | 35854 ft | 419 kts | 237° |
| 2026-04-30 13:00 | 34.93653 | -72.70637 | 35858 ft | 419 kts | 238° |
| 2026-04-30 13:00 | 34.89973 | -72.76134 | 35868 ft | 419 kts | 237° |
| 2026-04-30 13:01 | 34.86287 | -72.81630 | 35869 ft | 419 kts | 237° |
| 2026-04-30 13:01 | 34.82596 | -72.87122 | 35853 ft | 419 kts | 237° |
| 2026-04-30 13:02 | 34.78905 | -72.92613 | 35864 ft | 419 kts | 237° |
| 2026-04-30 13:02 | 34.75210 | -72.98099 | 35853 ft | 419 kts | 237° |
| 2026-04-30 13:03 | 34.71507 | -73.03585 | 35864 ft | 420 kts | 237° |
| 2026-04-30 13:03 | 34.67803 | -73.09067 | 35860 ft | 420 kts | 237° |
| 2026-04-30 13:04 | 34.64120 | -73.14507 | 35857 ft | 420 kts | 238° |
| 2026-04-30 13:04 | 34.60404 | -73.19990 | 35855 ft | 420 kts | 238° |
| 2026-04-30 13:05 | 34.56691 | -73.25453 | 35864 ft | 420 kts | 237° |
| 2026-04-30 13:06 | 34.51116 | -73.33649 | 35861 ft | 420 kts | 237° |
| 2026-04-30 13:06 | 34.47391 | -73.39115 | 35856 ft | 420 kts | 237° |
| 2026-04-30 13:07 | 34.43663 | -73.44576 | 35870 ft | 421 kts | 237° |
| 2026-04-30 13:07 | 34.39930 | -73.50037 | 35856 ft | 421 kts | 237° |
| 2026-04-30 13:08 | 34.36188 | -73.55502 | 35859 ft | 422 kts | 237° |
| 2026-04-30 13:08 | 34.32437 | -73.60973 | 35864 ft | 423 kts | 237° |
| 2026-04-30 13:09 | 34.28678 | -73.66446 | 35864 ft | 423 kts | 237° |
| 2026-04-30 13:09 | 34.24910 | -73.71925 | 35872 ft | 424 kts | 237° |
| 2026-04-30 13:10 | 34.21134 | -73.77406 | 35860 ft | 425 kts | 237° |
| 2026-04-30 13:10 | 34.17347 | -73.82890 | 35870 ft | 425 kts | 237° |
| 2026-04-30 13:11 | 34.13556 | -73.88377 | 35880 ft | 426 kts | 237° |
| 2026-04-30 13:11 | 34.09756 | -73.93866 | 35871 ft | 426 kts | 237° |
| 2026-04-30 13:12 | 34.05953 | -73.99351 | 35867 ft | 426 kts | 237° |
| 2026-04-30 13:12 | 34.02173 | -74.04795 | 35879 ft | 426 kts | 237° |
| 2026-04-30 13:13 | 33.96461 | -74.13007 | 35873 ft | 426 kts | 237° |
| 2026-04-30 13:14 | 33.90752 | -74.21197 | 35859 ft | 425 kts | 237° |
| 2026-04-30 13:14 | 33.85039 | -74.29371 | 35871 ft | 425 kts | 237° |
| 2026-04-30 13:15 | 33.79319 | -74.37536 | 35879 ft | 425 kts | 237° |
| 2026-04-30 13:16 | 33.75512 | -74.42979 | 35864 ft | 425 kts | 236° |
| 2026-04-30 13:16 | 33.71674 | -74.48381 | 35865 ft | 424 kts | 236° |
| 2026-04-30 13:17 | 33.65966 | -74.56538 | 35864 ft | 426 kts | 236° |
| 2026-04-30 13:18 | 33.60225 | -74.64754 | 35879 ft | 430 kts | 237° |
| 2026-04-30 13:18 | 33.54518 | -74.73041 | 35881 ft | 432 kts | 237° |
| 2026-04-30 13:19 | 33.50673 | -74.78588 | 35865 ft | 433 kts | 237° |
| 2026-04-30 13:19 | 33.46834 | -74.84134 | 35880 ft | 432 kts | 237° |
| 2026-04-30 13:20 | 33.42991 | -74.89669 | 35882 ft | 432 kts | 237° |
| 2026-04-30 13:20 | 33.39146 | -74.95196 | 35889 ft | 431 kts | 236° |
| 2026-04-30 13:21 | 33.35301 | -75.00712 | 35884 ft | 432 kts | 236° |
| 2026-04-30 13:22 | 33.29514 | -75.08990 | 35862 ft | 432 kts | 236° |
| 2026-04-30 13:22 | 33.23738 | -75.17251 | 35881 ft | 431 kts | 236° |
| 2026-04-30 13:23 | 33.17967 | -75.25476 | 35879 ft | 430 kts | 236° |
| 2026-04-30 13:24 | 33.10253 | -75.36452 | 35892 ft | 433 kts | 236° |
| 2026-04-30 13:25 | 33.02511 | -75.47429 | 35890 ft | 435 kts | 236° |
| 2026-04-30 13:26 | 32.92748 | -75.61227 | 35889 ft | 436 kts | 236° |
| 2026-04-30 13:28 | 32.82950 | -75.75017 | 35888 ft | 437 kts | 236° |
| 2026-04-30 13:28 | 32.77060 | -75.83284 | 35887 ft | 437 kts | 236° |
| 2026-04-30 13:29 | 32.69187 | -75.94306 | 35886 ft | 438 kts | 236° |
| 2026-04-30 13:31 | 32.59291 | -76.08116 | 35889 ft | 440 kts | 236° |
| 2026-04-30 13:32 | 32.49361 | -76.21917 | 35890 ft | 442 kts | 236° |
| 2026-04-30 13:33 | 32.41377 | -76.32976 | 35889 ft | 442 kts | 236° |
| 2026-04-30 13:34 | 32.35382 | -76.41260 | 35894 ft | 442 kts | 236° |
| 2026-04-30 13:35 | 32.27381 | -76.52284 | 35908 ft | 441 kts | 236° |
| 2026-04-30 13:36 | 32.19403 | -76.63249 | 35898 ft | 441 kts | 236° |
| 2026-04-30 13:36 | 32.13394 | -76.71485 | 35899 ft | 441 kts | 236° |
| 2026-04-30 13:37 | 32.07389 | -76.79688 | 35893 ft | 439 kts | 235° |
| 2026-04-30 13:38 | 32.01399 | -76.87868 | 35912 ft | 440 kts | 236° |
| 2026-04-30 13:39 | 31.94043 | -76.97883 | 35908 ft | 444 kts | 234° |
| 2026-04-30 13:40 | 31.87264 | -77.05503 | 35910 ft | 452 kts | 229° |
| 2026-04-30 13:40 | 31.82611 | -77.10507 | 35905 ft | 454 kts | 229° |
| 2026-04-30 13:41 | 31.77964 | -77.15534 | 35901 ft | 454 kts | 229° |
| 2026-04-30 13:41 | 31.73323 | -77.20560 | 35907 ft | 454 kts | 229° |
| 2026-04-30 13:42 | 31.68682 | -77.25575 | 35907 ft | 453 kts | 229° |
| 2026-04-30 13:42 | 31.61733 | -77.33069 | 35908 ft | 452 kts | 229° |
| 2026-04-30 13:43 | 31.57097 | -77.38053 | 35907 ft | 452 kts | 229° |
| 2026-04-30 13:43 | 31.52461 | -77.43030 | 35906 ft | 452 kts | 230° |
| 2026-04-30 13:44 | 31.47822 | -77.48012 | 35899 ft | 452 kts | 229° |
| 2026-04-30 13:44 | 31.43183 | -77.52982 | 35909 ft | 451 kts | 229° |
| 2026-04-30 13:45 | 31.36264 | -77.60385 | 35908 ft | 451 kts | 229° |
| 2026-04-30 13:46 | 31.31628 | -77.65337 | 35906 ft | 451 kts | 229° |
| 2026-04-30 13:46 | 31.27055 | -77.70359 | 35900 ft | 448 kts | 233° |
| 2026-04-30 13:47 | 31.23202 | -77.75985 | 35899 ft | 441 kts | 240° |
| 2026-04-30 13:47 | 31.19583 | -77.81789 | 35907 ft | 443 kts | 239° |
| 2026-04-30 13:48 | 31.15929 | -77.87583 | 35917 ft | 443 kts | 239° |
| 2026-04-30 13:48 | 31.12259 | -77.93373 | 35917 ft | 444 kts | 239° |
| 2026-04-30 13:49 | 31.08584 | -77.99166 | 35917 ft | 444 kts | 239° |
| 2026-04-30 13:49 | 31.04909 | -78.04967 | 35924 ft | 445 kts | 239° |
| 2026-04-30 13:50 | 31.01232 | -78.10773 | 35913 ft | 445 kts | 239° |
| 2026-04-30 13:50 | 30.95708 | -78.19480 | 35906 ft | 445 kts | 239° |
| 2026-04-30 13:51 | 30.92047 | -78.25228 | 35914 ft | 445 kts | 239° |
| 2026-04-30 13:51 | 30.88334 | -78.30989 | 35918 ft | 445 kts | 239° |
| 2026-04-30 13:52 | 30.84618 | -78.36748 | 35915 ft | 445 kts | 239° |
| 2026-04-30 13:52 | 30.80905 | -78.42503 | 35917 ft | 445 kts | 239° |
| 2026-04-30 13:53 | 30.77194 | -78.48262 | 35917 ft | 445 kts | 239° |
| 2026-04-30 13:53 | 30.73488 | -78.54019 | 35926 ft | 444 kts | 239° |
| 2026-04-30 13:54 | 30.69783 | -78.59770 | 35926 ft | 444 kts | 239° |
| 2026-04-30 13:54 | 30.66074 | -78.65516 | 35926 ft | 445 kts | 239° |
| 2026-04-30 13:55 | 30.62342 | -78.71248 | 35925 ft | 446 kts | 238° |
| 2026-04-30 13:55 | 30.58399 | -78.76827 | 35932 ft | 447 kts | 237° |
| 2026-04-30 13:56 | 30.54448 | -78.82343 | 35937 ft | 447 kts | 237° |
| 2026-04-30 13:56 | 30.50499 | -78.87916 | 35935 ft | 447 kts | 237° |
| 2026-04-30 13:57 | 30.46550 | -78.93500 | 35934 ft | 448 kts | 237° |
| 2026-04-30 13:57 | 30.42049 | -78.98574 | 35951 ft | 461 kts | 223° |
| 2026-04-30 13:58 | 30.33265 | -79.03627 | 35972 ft | 479 kts | 208° |
| 2026-04-30 13:59 | 30.26995 | -79.06260 | 35968 ft | 480 kts | 207° |
| 2026-04-30 13:59 | 30.20724 | -79.08917 | 35964 ft | 480 kts | 208° |
| 2026-04-30 14:00 | 30.14458 | -79.11623 | 35963 ft | 480 kts | 208° |
| 2026-04-30 14:00 | 30.05067 | -79.15705 | 35962 ft | 481 kts | 208° |
| 2026-04-30 14:01 | 29.98852 | -79.18403 | 35964 ft | 481 kts | 208° |
| 2026-04-30 14:01 | 29.92584 | -79.21118 | 35967 ft | 481 kts | 207° |
| 2026-04-30 14:02 | 29.86309 | -79.23830 | 35976 ft | 482 kts | 207° |
| 2026-04-30 14:02 | 29.80018 | -79.26549 | 35972 ft | 483 kts | 207° |
| 2026-04-30 14:03 | 29.73725 | -79.29263 | 35966 ft | 484 kts | 207° |
| 2026-04-30 14:03 | 29.67418 | -79.31978 | 35962 ft | 484 kts | 207° |
| 2026-04-30 14:04 | 29.61103 | -79.34693 | 35955 ft | 485 kts | 207° |
| 2026-04-30 14:04 | 29.54784 | -79.37408 | 35953 ft | 485 kts | 207° |
| 2026-04-30 14:05 | 29.48461 | -79.40121 | 35954 ft | 485 kts | 207° |
| 2026-04-30 14:05 | 29.42184 | -79.42810 | 35955 ft | 485 kts | 207° |
| 2026-04-30 14:06 | 29.32709 | -79.46862 | 35961 ft | 485 kts | 207° |
| 2026-04-30 14:07 | 29.23228 | -79.50910 | 35954 ft | 485 kts | 207° |
| 2026-04-30 14:08 | 29.13742 | -79.54952 | 35959 ft | 485 kts | 207° |
| 2026-04-30 14:08 | 29.04763 | -79.59904 | 35965 ft | 472 kts | 220° |
| 2026-04-30 14:09 | 28.99391 | -79.64201 | 35961 ft | 471 kts | 221° |
| 2026-04-30 14:10 | 28.91258 | -79.70593 | 35955 ft | 475 kts | 220° |
| 2026-04-30 14:10 | 28.85750 | -79.74784 | 35955 ft | 476 kts | 220° |
| 2026-04-30 14:11 | 28.80223 | -79.78960 | 35952 ft | 477 kts | 219° |
| 2026-04-30 14:11 | 28.74687 | -79.83138 | 35954 ft | 478 kts | 219° |
| 2026-04-30 14:12 | 28.69128 | -79.87336 | 35955 ft | 479 kts | 219° |
| 2026-04-30 14:12 | 28.63567 | -79.91531 | 35952 ft | 480 kts | 219° |
| 2026-04-30 14:13 | 28.58000 | -79.95726 | 35955 ft | 480 kts | 219° |
| 2026-04-30 14:13 | 28.52424 | -79.99920 | 35953 ft | 481 kts | 219° |
| 2026-04-30 14:14 | 28.46841 | -80.04112 | 35953 ft | 481 kts | 219° |
| 2026-04-30 14:14 | 28.41292 | -80.08277 | 35955 ft | 482 kts | 219° |
| 2026-04-30 14:15 | 28.35684 | -80.12482 | 35954 ft | 483 kts | 219° |
| 2026-04-30 14:15 | 28.30071 | -80.16686 | 35955 ft | 484 kts | 219° |
| 2026-04-30 14:16 | 28.24446 | -80.20892 | 35953 ft | 484 kts | 219° |
| 2026-04-30 14:16 | 28.18826 | -80.25090 | 35953 ft | 484 kts | 219° |
| 2026-04-30 14:17 | 28.13163 | -80.29217 | 35949 ft | 486 kts | 212° |
| 2026-04-30 14:17 | 28.09930 | -80.30469 | 35967 ft | 499 kts | 194° |
| 2026-04-30 14:17 | 28.06431 | -80.30628 | 35977 ft | 510 kts | 178° |
| 2026-04-30 14:17 | 28.02961 | -80.29669 | 35958 ft | 516 kts | 162° |
| 2026-04-30 14:18 | 27.99612 | -80.28184 | 35975 ft | 518 kts | 161° |
| 2026-04-30 14:18 | 27.89476 | -80.23812 | 35989 ft | 521 kts | 163° |
| 2026-04-30 14:19 | 27.80063 | -80.19959 | 35987 ft | 523 kts | 163° |
| 2026-04-30 14:20 | 27.73260 | -80.17181 | 35996 ft | 524 kts | 163° |
| 2026-04-30 14:20 | 27.69833 | -80.15779 | 35841 ft | 526 kts | 163° |
| 2026-04-30 14:20 | 27.62843 | -80.12927 | 34077 ft | 536 kts | 162° |
| 2026-04-30 14:21 | 27.59341 | -80.11497 | 33172 ft | 535 kts | 162° |
| 2026-04-30 14:21 | 27.55841 | -80.10068 | 32338 ft | 533 kts | 162° |
| 2026-04-30 14:21 | 27.48957 | -80.07259 | 31148 ft | 520 kts | 162° |
| 2026-04-30 14:22 | 27.45574 | -80.05882 | 30566 ft | 514 kts | 162° |
| 2026-04-30 14:22 | 27.38937 | -80.03183 | 29528 ft | 501 kts | 162° |
| 2026-04-30 14:22 | 27.35671 | -80.01856 | 28973 ft | 496 kts | 162° |
| 2026-04-30 14:23 | 27.29241 | -79.99246 | 27814 ft | 487 kts | 162° |
| 2026-04-30 14:23 | 27.22929 | -79.96689 | 26670 ft | 478 kts | 162° |
| 2026-04-30 14:24 | 27.16733 | -79.94180 | 25568 ft | 469 kts | 162° |
| 2026-04-30 14:24 | 27.13676 | -79.92943 | 25015 ft | 465 kts | 162° |
| 2026-04-30 14:25 | 27.07651 | -79.90506 | 23926 ft | 456 kts | 162° |
| 2026-04-30 14:25 | 27.01722 | -79.88114 | 22877 ft | 448 kts | 162° |
| 2026-04-30 14:26 | 26.95906 | -79.85768 | 21831 ft | 440 kts | 162° |
| 2026-04-30 14:26 | 26.93038 | -79.84612 | 21331 ft | 436 kts | 162° |
| 2026-04-30 14:26 | 26.87285 | -79.83952 | 20325 ft | 411 kts | 195° |
| 2026-04-30 14:27 | 26.84606 | -79.84915 | 19844 ft | 400 kts | 204° |
| 2026-04-30 14:27 | 26.82006 | -79.85997 | 19358 ft | 397 kts | 204° |
| 2026-04-30 14:27 | 26.79421 | -79.87060 | 18868 ft | 395 kts | 203° |
| 2026-04-30 14:28 | 26.74289 | -79.89135 | 17887 ft | 390 kts | 203° |
| 2026-04-30 14:28 | 26.71745 | -79.90152 | 17397 ft | 388 kts | 203° |
| 2026-04-30 14:28 | 26.69244 | -79.91148 | 16910 ft | 385 kts | 203° |
| 2026-04-30 14:28 | 26.66726 | -79.92148 | 16417 ft | 383 kts | 202° |
| 2026-04-30 14:29 | 26.61727 | -79.94131 | 15437 ft | 379 kts | 202° |
| 2026-04-30 14:29 | 26.57587 | -79.95773 | 14630 ft | 375 kts | 203° |
| 2026-04-30 14:30 | 26.49516 | -79.99060 | 13008 ft | 367 kts | 206° |
| 2026-04-30 14:31 | 26.45588 | -80.00926 | 12202 ft | 364 kts | 206° |
| 2026-04-30 14:31 | 26.40871 | -80.02642 | 11248 ft | 359 kts | 188° |
| 2026-04-30 14:31 | 26.38386 | -80.02836 | 10852 ft | 356 kts | 186° |
| 2026-04-30 14:32 | 26.33608 | -80.03303 | 10536 ft | 331 kts | 187° |
| 2026-04-30 14:32 | 26.31415 | -80.03559 | 10357 ft | 302 kts | 187° |
| 2026-04-30 14:32 | 26.29417 | -80.03788 | 10237 ft | 275 kts | 186° |
| 2026-04-30 14:33 | 26.27571 | -80.03936 | 10121 ft | 266 kts | 184° |
| 2026-04-30 14:33 | 26.23628 | -80.04079 | 9424 ft | 293 kts | 182° |
| 2026-04-30 14:33 | 26.21582 | -80.04164 | 9045 ft | 295 kts | 182° |
| 2026-04-30 14:34 | 26.19565 | -80.04244 | 8611 ft | 287 kts | 182° |
| 2026-04-30 14:34 | 26.17600 | -80.04339 | 8199 ft | 278 kts | 182° |
| 2026-04-30 14:34 | 26.15693 | -80.04438 | 7771 ft | 272 kts | 182° |
| 2026-04-30 14:34 | 26.13819 | -80.04537 | 7377 ft | 269 kts | 182° |
| 2026-04-30 14:35 | 26.10022 | -80.04735 | 6613 ft | 274 kts | 182° |
| 2026-04-30 14:35 | 26.08148 | -80.04827 | 6192 ft | 266 kts | 182° |
| 2026-04-30 14:35 | 26.06320 | -80.04915 | 5781 ft | 259 kts | 182° |
| 2026-04-30 14:36 | 26.04538 | -80.05000 | 5371 ft | 254 kts | 183° |
| 2026-04-30 14:36 | 26.02788 | -80.05079 | 4970 ft | 249 kts | 182° |
| 2026-04-30 14:36 | 26.01063 | -80.05155 | 4559 ft | 244 kts | 183° |
| 2026-04-30 14:36 | 25.99401 | -80.05235 | 4118 ft | 234 kts | 183° |
| 2026-04-30 14:37 | 25.97806 | -80.05311 | 3691 ft | 225 kts | 183° |
| 2026-04-30 14:37 | 25.96280 | -80.05375 | 3311 ft | 213 kts | 182° |
| 2026-04-30 14:37 | 25.94820 | -80.05433 | 3133 ft | 205 kts | 182° |
| 2026-04-30 14:37 | 25.93422 | -80.05484 | 3116 ft | 202 kts | 182° |
| 2026-04-30 14:38 | 25.91988 | -80.05535 | 3082 ft | 209 kts | 182° |
| 2026-04-30 14:38 | 25.90544 | -80.05586 | 3039 ft | 211 kts | 182° |
| 2026-04-30 14:38 | 25.89083 | -80.05638 | 2995 ft | 209 kts | 182° |
| 2026-04-30 14:38 | 25.87638 | -80.05690 | 2984 ft | 207 kts | 182° |
| 2026-04-30 14:39 | 25.85984 | -80.05751 | 2983 ft | 205 kts | 182° |
| 2026-04-30 14:39 | 25.84579 | -80.05887 | 2983 ft | 203 kts | 198° |
| 2026-04-30 14:39 | 25.83372 | -80.06720 | 3020 ft | 209 kts | 222° |
| 2026-04-30 14:40 | 25.81214 | -80.08920 | 2992 ft | 209 kts | 222° |
| 2026-04-30 14:40 | 25.80169 | -80.10022 | 2981 ft | 204 kts | 230° |
| 2026-04-30 14:40 | 25.79637 | -80.11408 | 2980 ft | 193 kts | 266° |
| 2026-04-30 14:40 | 25.79766 | -80.12888 | 2741 ft | 197 kts | 282° |
| 2026-04-30 14:41 | 25.80169 | -80.14316 | 2428 ft | 185 kts | 287° |
| 2026-04-30 14:41 | 25.80573 | -80.15638 | 2076 ft | 178 kts | 288° |
| 2026-04-30 14:41 | 25.80773 | -80.16921 | 1826 ft | 165 kts | 271° |
| 2026-04-30 14:41 | 25.80751 | -80.18206 | 1632 ft | 167 kts | 265° |
| 2026-04-30 14:42 | 25.80708 | -80.19527 | 1554 ft | 172 kts | 268° |
| 2026-04-30 14:42 | 25.80669 | -80.20837 | 1464 ft | 169 kts | 266° |
| 2026-04-30 14:42 | 25.80616 | -80.22103 | 1163 ft | 159 kts | 267° |
| 2026-04-30 14:42 | 25.80584 | -80.23301 | 802 ft | 150 kts | 266° |
| 2026-04-30 14:43 | 25.80528 | -80.24455 | 560 ft | 150 kts | 266° |
| 2026-04-30 14:43 | 25.80477 | -80.25610 | 373 ft | 148 kts | 266° |
| 2026-04-30 14:43 | 25.80433 | -80.26760 | 214 ft | 149 kts | 266° |
| 2026-04-30 14:43 | 25.80382 | -80.27921 | 36 ft | 151 kts | 266° |
| 2026-04-30 14:44 | 25.80339 | -80.28977 | 21 ft | 115 kts | 267° |
| 2026-04-30 14:44 | 25.80313 | -80.29633 | 20 ft | 38 kts | 267° |
| 2026-04-30 14:44 | 25.80256 | -80.29734 | 19 ft | 9 kts | 206° |
| 2026-04-30 14:44 | 25.80224 | -80.29747 | 19 ft | 5 kts | 195° |
| 2026-04-30 14:45 | 25.80136 | -80.29754 | 18 ft | 18 kts | 179° |
| 2026-04-30 14:45 | 25.80030 | -80.29762 | 19 ft | 14 kts | 182° |
| 2026-04-30 14:45 | 25.79938 | -80.29752 | 19 ft | 14 kts | 155° |
| 2026-04-30 14:45 | 25.79899 | -80.29662 | 19 ft | 14 kts | 92° |
| 2026-04-30 14:46 | 25.79901 | -80.29558 | 20 ft | 14 kts | 88° |
| 2026-04-30 14:46 | 25.79906 | -80.29454 | 20 ft | 14 kts | 87° |
| 2026-04-30 14:46 | 25.79910 | -80.29350 | 20 ft | 14 kts | 87° |
| 2026-04-30 14:46 | 25.79913 | -80.29281 | 20 ft | 14 kts | 87° |
| 2026-04-30 14:47 | 25.79919 | -80.29141 | 20 ft | 14 kts | 87° |
| 2026-04-30 14:47 | 25.79923 | -80.29037 | 22 ft | 14 kts | 88° |
| 2026-04-30 14:47 | 25.79927 | -80.28933 | 20 ft | 14 kts | 88° |
| 2026-04-30 14:47 | 25.79932 | -80.28829 | 21 ft | 14 kts | 87° |
| 2026-04-30 14:48 | 25.79936 | -80.28725 | 22 ft | 14 kts | 87° |
| 2026-04-30 14:48 | 25.79941 | -80.28621 | 22 ft | 14 kts | 87° |
| 2026-04-30 14:48 | 25.79945 | -80.28517 | 20 ft | 14 kts | 88° |
| 2026-04-30 14:48 | 25.79949 | -80.28413 | 20 ft | 14 kts | 88° |
| 2026-04-30 14:49 | 25.79953 | -80.28308 | 20 ft | 14 kts | 86° |
| 2026-04-30 14:49 | 25.79958 | -80.28204 | 20 ft | 14 kts | 86° |
| 2026-04-30 14:49 | 25.79962 | -80.28100 | 19 ft | 14 kts | 88° |
| 2026-04-30 14:49 | 25.79966 | -80.27997 | 19 ft | 12 kts | 88° |
| 2026-04-30 14:50 | 25.79913 | -80.27898 | 20 ft | 6 kts | 181° |
| 2026-04-30 14:50 | 25.79892 | -80.27917 | 20 ft | 3 kts | 240° |
| 2026-04-30 14:51 | 25.79858 | -80.27956 | 20 ft | 4 kts | 196° |
| 2026-04-30 14:51 | 25.79829 | -80.27959 | 20 ft | 4 kts | 181° |
| 2026-04-30 14:51 | 25.79779 | -80.27958 | 20 ft | 1 kts | 178° |
| 2026-04-30 14:52 | 25.79777 | -80.27958 | 20 ft | 0 kts | 178° |